createdAt,value
2022-09-06T00:04:15.734Z,100779.75
2022-09-06T00:19:17.707Z,100782.56
2022-09-06T00:34:19.690Z,100772.44
2022-09-06T00:49:32.887Z,100773.66
2022-09-06T01:04:36.215Z,100773.69
2022-09-06T01:20:15.472Z,100769.19
2022-09-06T01:35:48.828Z,100770.63
2022-09-06T01:50:59.012Z,100777.72
2022-09-06T02:06:07.915Z,100781.97
2022-09-06T02:21:13.874Z,100778.72
2022-09-06T02:36:16.185Z,100784.63
2022-09-06T02:51:18.622Z,100787.03
2022-09-06T03:06:20.491Z,100800.50
2022-09-06T03:21:22.424Z,100813.09
2022-09-06T03:36:24.491Z,100817.13
2022-09-06T03:51:26.409Z,100825.53
2022-09-06T04:06:29.485Z,100837.56
2022-09-06T04:21:31.823Z,100846.81
2022-09-06T04:36:33.917Z,100850.88
2022-09-06T04:51:37.508Z,100845.59
2022-09-06T05:06:40.234Z,100839.94
2022-09-06T05:21:42.513Z,100839.47
2022-09-06T05:36:45.858Z,100849.69
2022-09-06T05:51:52.152Z,100854.22
2022-09-06T06:06:54.026Z,100861.94
2022-09-06T06:21:56.422Z,100868.88
2022-09-06T06:36:58.432Z,100875.44
2022-09-06T06:52:00.388Z,100886.75
2022-09-06T07:22:24.203Z,100892.81
2022-09-06T07:37:26.171Z,100890.66
2022-09-06T08:23:11.872Z,100870.19
2022-09-06T08:38:13.826Z,100849.47
2022-09-06T08:53:20.018Z,100859.75
2022-09-06T09:08:52.950Z,100856.84
2022-09-06T09:23:59.022Z,100857.69
2022-09-06T09:39:04.079Z,100847.03
2022-09-06T09:54:08.824Z,100854.50
2022-09-06T10:09:23.050Z,100831.78
2022-09-06T10:24:40.622Z,100835.78
2022-09-06T10:40:02.824Z,100844.25
2022-09-06T10:55:06.911Z,100830.84
2022-09-06T11:10:27.151Z,100831.94
2022-09-06T11:25:47.213Z,100820.19
2022-09-06T11:40:58.539Z,100817.00
2022-09-06T11:56:00.892Z,100802.88
2022-09-06T12:11:25.574Z,100795.44
2022-09-06T12:26:55.381Z,100797.63
2022-09-06T12:42:03.120Z,100790.75
2022-09-06T12:57:26.508Z,100796.09
2022-09-06T13:12:33.607Z,100789.34
2022-09-06T13:27:39.729Z,100793.81
2022-09-06T13:42:41.932Z,100798.47
2022-09-06T13:57:44.471Z,100799.41
2022-09-06T14:12:48.939Z,100793.84
2022-09-06T14:27:50.864Z,100817.19
2022-09-06T14:42:55.832Z,100827.47
2022-09-06T14:57:59.584Z,100816.91
2022-09-06T15:13:01.516Z,100831.63
2022-09-06T15:28:03.649Z,100832.19
2022-09-06T15:43:05.687Z,100816.50
2022-09-06T15:58:07.655Z,100826.88
2022-09-06T16:13:09.682Z,100818.13
2022-09-06T16:28:11.576Z,100828.63
2022-09-06T16:43:13.915Z,100845.91
2022-09-06T16:58:16.392Z,100868.28
2022-09-06T17:13:18.350Z,100886.53
2022-09-06T17:28:20.993Z,100906.22
2022-09-06T17:43:23.070Z,100916.69
2022-09-06T17:58:25.091Z,100924.66
2022-09-06T18:13:27.025Z,100934.09
2022-09-06T18:28:29.621Z,100933.69
2022-09-06T18:43:34.593Z,100937.41
2022-09-06T18:58:39.342Z,100939.38
2022-09-06T19:13:42.058Z,100950.34
2022-09-06T19:28:53.309Z,100944.72
2022-09-06T19:43:56.962Z,100940.03
2022-09-06T19:59:04.537Z,100943.28
2022-09-06T20:14:07.031Z,100954.72
2022-09-06T20:29:09.045Z,100956.03
2022-09-06T20:44:11.058Z,100955.66
2022-09-06T20:59:13.887Z,100953.13
2022-09-06T21:14:15.834Z,100960.84
2022-09-06T21:29:17.764Z,100968.06
2022-09-06T21:44:19.754Z,100954.22
2022-09-06T21:59:21.673Z,100958.25
2022-09-06T22:14:23.568Z,100958.25
2022-09-06T22:29:25.988Z,100959.09
2022-09-06T22:44:28.717Z,100952.16
2022-09-06T22:59:31.384Z,100946.44
2022-09-06T23:14:33.327Z,100940.72
2022-09-06T23:29:35.271Z,100950.09
2022-09-06T23:44:37.490Z,100938.59
2022-09-06T23:59:39.428Z,100937.16
